Terminal Aerodrome Forecast
Issued by NWS Sterling, VA

Current Version | Previous Version | Text Only | Print | Product List | Glossary Off
Versions: 1 2 3 4 5 6 7 8 9 10 11 12 13 14 15 16 17 18 19 20 21 22

000
FTUS41 KLWX 262300
TAFDCA
TAF
KDCA 262336Z 2700/2724 02011KT 5SM -SN OVC011
     FM270200 01011G20KT 4SM -SN OVC009
     FM271300 33011G19KT 5SM -SHSN OVC015
     FM271400 33011G19KT P6SM OVC015
     FM271800 32012G21KT P6SM OVC025
     FM272000 32013G22KT P6SM BKN045=

USA.gov is the U.S. government's official web portal to all federal, state and local government web resources and services.